sensor_id;sensor_type;location;lat;lon;timestamp;temperature;humidity
9414;DHT22;4746;35.664;139.738;2022-08-19T00:02:17;28.30;99.90
9414;DHT22;4746;35.664;139.738;2022-08-19T00:04:45;28.30;99.90
9414;DHT22;4746;35.664;139.738;2022-08-19T00:07:14;28.40;99.90
9414;DHT22;4746;35.664;139.738;2022-08-19T00:09:42;28.40;99.90
9414;DHT22;4746;35.664;139.738;2022-08-19T00:12:09;28.40;99.90
9414;DHT22;4746;35.664;139.738;2022-08-19T00:14:38;28.40;99.90
9414;DHT22;4746;35.664;139.738;2022-08-19T00:17:07;28.40;99.90
9414;DHT22;4746;35.664;139.738;2022-08-19T00:19:37;28.50;99.90
9414;DHT22;4746;35.664;139.738;2022-08-19T00:22:05;28.50;99.90
9414;DHT22;4746;35.664;139.738;2022-08-19T00:24:35;28.50;99.90
9414;DHT22;4746;35.664;139.738;2022-08-19T00:27:04;28.60;99.90
9414;DHT22;4746;35.664;139.738;2022-08-19T00:29:32;28.60;99.90
9414;DHT22;4746;35.664;139.738;2022-08-19T00:32:00;28.60;99.90
9414;DHT22;4746;35.664;139.738;2022-08-19T00:34:28;28.60;99.90
9414;DHT22;4746;35.664;139.738;2022-08-19T00:36:56;28.70;99.90
9414;DHT22;4746;35.664;139.738;2022-08-19T00:39:25;28.70;99.90
9414;DHT22;4746;35.664;139.738;2022-08-19T00:41:53;28.70;99.90
9414;DHT22;4746;35.664;139.738;2022-08-19T00:44:24;28.80;99.90
9414;DHT22;4746;35.664;139.738;2022-08-19T00:46:56;28.80;99.90
9414;DHT22;4746;35.664;139.738;2022-08-19T00:52:07;28.90;99.90
9414;DHT22;4746;35.664;139.738;2022-08-19T00:54:42;29.00;99.90
9414;DHT22;4746;35.664;139.738;2022-08-19T00:57:15;29.10;99.90
9414;DHT22;4746;35.664;139.738;2022-08-19T00:59:47;29.10;99.90
9414;DHT22;4746;35.664;139.738;2022-08-19T01:02:18;29.10;99.90
9414;DHT22;4746;35.664;139.738;2022-08-19T01:04:46;29.20;99.90
9414;DHT22;4746;35.664;139.738;2022-08-19T01:07:14;29.30;99.90
9414;DHT22;4746;35.664;139.738;2022-08-19T01:09:43;29.30;99.90
9414;DHT22;4746;35.664;139.738;2022-08-19T01:12:10;29.30;99.90
9414;DHT22;4746;35.664;139.738;2022-08-19T01:14:39;29.40;99.00
9414;DHT22;4746;35.664;139.738;2022-08-19T01:17:11;29.40;98.50
9414;DHT22;4746;35.664;139.738;2022-08-19T01:19:43;29.50;98.10
9414;DHT22;4746;35.664;139.738;2022-08-19T01:22:19;29.60;98.50
9414;DHT22;4746;35.664;139.738;2022-08-19T01:24:54;29.70;98.50
9414;DHT22;4746;35.664;139.738;2022-08-19T01:27:22;29.70;99.30
9414;DHT22;4746;35.664;139.738;2022-08-19T01:29:49;29.70;99.60
9414;DHT22;4746;35.664;139.738;2022-08-19T01:32:17;29.80;99.90
9414;DHT22;4746;35.664;139.738;2022-08-19T01:34:46;29.70;99.80
9414;DHT22;4746;35.664;139.738;2022-08-19T01:37:14;29.70;99.70
9414;DHT22;4746;35.664;139.738;2022-08-19T01:39:43;29.70;99.90
9414;DHT22;4746;35.664;139.738;2022-08-19T01:42:11;29.80;99.60
9414;DHT22;4746;35.664;139.738;2022-08-19T01:44:39;29.80;99.40
9414;DHT22;4746;35.664;139.738;2022-08-19T01:47:08;29.90;99.60
9414;DHT22;4746;35.664;139.738;2022-08-19T01:49:36;30.00;99.90
9414;DHT22;4746;35.664;139.738;2022-08-19T01:52:05;30.10;99.90
9414;DHT22;4746;35.664;139.738;2022-08-19T01:54:33;30.10;99.90
9414;DHT22;4746;35.664;139.738;2022-08-19T01:57:07;30.20;99.90
9414;DHT22;4746;35.664;139.738;2022-08-19T01:59:39;30.30;99.90
9414;DHT22;4746;35.664;139.738;2022-08-19T02:02:09;30.40;99.90
9414;DHT22;4746;35.664;139.738;2022-08-19T02:04:37;30.40;99.90
9414;DHT22;4746;35.664;139.738;2022-08-19T02:07:06;30.50;99.70
9414;DHT22;4746;35.664;139.738;2022-08-19T02:09:34;30.40;99.30
9414;DHT22;4746;35.664;139.738;2022-08-19T02:12:03;30.30;98.70
9414;DHT22;4746;35.664;139.738;2022-08-19T02:14:35;30.40;99.00
9414;DHT22;4746;35.664;139.738;2022-08-19T02:17:04;30.30;98.90
9414;DHT22;4746;35.664;139.738;2022-08-19T02:19:31;30.30;99.50
9414;DHT22;4746;35.664;139.738;2022-08-19T02:22:00;30.40;99.70
9414;DHT22;4746;35.664;139.738;2022-08-19T02:24:28;30.40;99.40
9414;DHT22;4746;35.664;139.738;2022-08-19T02:26:55;30.50;99.20
9414;DHT22;4746;35.664;139.738;2022-08-19T02:29:23;30.60;99.50
9414;DHT22;4746;35.664;139.738;2022-08-19T02:31:50;30.80;99.00
9414;DHT22;4746;35.664;139.738;2022-08-19T02:34:18;31.00;99.10
9414;DHT22;4746;35.664;139.738;2022-08-19T02:36:46;31.20;98.00
9414;DHT22;4746;35.664;139.738;2022-08-19T02:39:13;31.50;96.60
9414;DHT22;4746;35.664;139.738;2022-08-19T02:41:41;31.70;95.50
9414;DHT22;4746;35.664;139.738;2022-08-19T02:44:09;32.00;95.50
9414;DHT22;4746;35.664;139.738;2022-08-19T02:46:36;32.20;96.00
9414;DHT22;4746;35.664;139.738;2022-08-19T02:49:06;32.30;96.00
9414;DHT22;4746;35.664;139.738;2022-08-19T02:51:39;32.50;95.50
9414;DHT22;4746;35.664;139.738;2022-08-19T02:54:10;32.60;95.40
9414;DHT22;4746;35.664;139.738;2022-08-19T02:56:40;32.60;95.20
9414;DHT22;4746;35.664;139.738;2022-08-19T02:59:08;32.80;95.00
9414;DHT22;4746;35.664;139.738;2022-08-19T03:01:38;32.90;94.60
9414;DHT22;4746;35.664;139.738;2022-08-19T03:04:09;33.10;93.70
9414;DHT22;4746;35.664;139.738;2022-08-19T03:06:41;33.10;92.40
9414;DHT22;4746;35.664;139.738;2022-08-19T03:09:12;33.10;92.10
9414;DHT22;4746;35.664;139.738;2022-08-19T03:11:41;33.30;91.50
9414;DHT22;4746;35.664;139.738;2022-08-19T03:14:09;33.40;90.90
9414;DHT22;4746;35.664;139.738;2022-08-19T03:16:46;33.50;90.40
9414;DHT22;4746;35.664;139.738;2022-08-19T03:19:19;33.70;88.90
9414;DHT22;4746;35.664;139.738;2022-08-19T03:21:48;33.80;87.60
9414;DHT22;4746;35.664;139.738;2022-08-19T03:24:17;34.00;86.50
9414;DHT22;4746;35.664;139.738;2022-08-19T03:26:48;34.10;84.90
9414;DHT22;4746;35.664;139.738;2022-08-19T03:29:18;34.20;83.70
9414;DHT22;4746;35.664;139.738;2022-08-19T03:31:46;34.20;82.50
9414;DHT22;4746;35.664;139.738;2022-08-19T03:34:17;34.20;81.80
9414;DHT22;4746;35.664;139.738;2022-08-19T03:36:47;34.20;80.70
9414;DHT22;4746;35.664;139.738;2022-08-19T03:39:16;34.30;80.90
9414;DHT22;4746;35.664;139.738;2022-08-19T03:41:45;34.40;79.60
9414;DHT22;4746;35.664;139.738;2022-08-19T03:44:19;34.50;78.70
9414;DHT22;4746;35.664;139.738;2022-08-19T03:46:58;34.70;77.50
9414;DHT22;4746;35.664;139.738;2022-08-19T03:49:29;34.80;75.80
9414;DHT22;4746;35.664;139.738;2022-08-19T03:51:59;34.80;75.30
9414;DHT22;4746;35.664;139.738;2022-08-19T03:54:27;34.80;74.70
9414;DHT22;4746;35.664;139.738;2022-08-19T03:56:56;34.90;73.80
9414;DHT22;4746;35.664;139.738;2022-08-19T03:59:30;34.90;72.50
9414;DHT22;4746;35.664;139.738;2022-08-19T04:02:03;35.00;72.70
9414;DHT22;4746;35.664;139.738;2022-08-19T04:04:36;35.10;72.50
9414;DHT22;4746;35.664;139.738;2022-08-19T04:07:10;35.30;72.60
9414;DHT22;4746;35.664;139.738;2022-08-19T04:09:42;35.40;71.90
9414;DHT22;4746;35.664;139.738;2022-08-19T04:12:10;35.50;71.20
9414;DHT22;4746;35.664;139.738;2022-08-19T04:14:37;35.60;70.60
9414;DHT22;4746;35.664;139.738;2022-08-19T04:17:06;35.80;70.00
9414;DHT22;4746;35.664;139.738;2022-08-19T04:19:36;35.90;69.10
9414;DHT22;4746;35.664;139.738;2022-08-19T04:22:05;36.00;68.90
9414;DHT22;4746;35.664;139.738;2022-08-19T04:24:34;36.20;68.70
9414;DHT22;4746;35.664;139.738;2022-08-19T04:27:02;36.40;68.50
9414;DHT22;4746;35.664;139.738;2022-08-19T04:29:31;36.50;68.10
9414;DHT22;4746;35.664;139.738;2022-08-19T04:32:00;36.60;67.40
9414;DHT22;4746;35.664;139.738;2022-08-19T04:34:29;36.70;67.30
9414;DHT22;4746;35.664;139.738;2022-08-19T04:36:57;36.90;67.30
9414;DHT22;4746;35.664;139.738;2022-08-19T04:39:28;37.20;67.30
9414;DHT22;4746;35.664;139.738;2022-08-19T04:42:17;37.50;67.10
9414;DHT22;4746;35.664;139.738;2022-08-19T04:45:08;37.60;66.40
9414;DHT22;4746;35.664;139.738;2022-08-19T04:47:40;37.70;66.40
9414;DHT22;4746;35.664;139.738;2022-08-19T04:50:10;37.80;66.10
9414;DHT22;4746;35.664;139.738;2022-08-19T04:52:39;37.70;65.90
9414;DHT22;4746;35.664;139.738;2022-08-19T04:55:12;37.80;65.40
9414;DHT22;4746;35.664;139.738;2022-08-19T04:57:40;38.00;66.00
9414;DHT22;4746;35.664;139.738;2022-08-19T05:00:09;38.00;65.20
9414;DHT22;4746;35.664;139.738;2022-08-19T05:02:37;38.10;64.70
9414;DHT22;4746;35.664;139.738;2022-08-19T05:05:05;38.20;64.20
9414;DHT22;4746;35.664;139.738;2022-08-19T05:07:34;38.10;62.80
9414;DHT22;4746;35.664;139.738;2022-08-19T05:10:05;37.80;62.50
9414;DHT22;4746;35.664;139.738;2022-08-19T05:12:33;37.20;62.90
9414;DHT22;4746;35.664;139.738;2022-08-19T05:15:02;37.00;63.10
9414;DHT22;4746;35.664;139.738;2022-08-19T05:17:32;36.60;63.70
9414;DHT22;4746;35.664;139.738;2022-08-19T05:19:59;36.60;63.50
9414;DHT22;4746;35.664;139.738;2022-08-19T05:22:47;36.70;62.00
9414;DHT22;4746;35.664;139.738;2022-08-19T05:25:18;36.90;61.10
9414;DHT22;4746;35.664;139.738;2022-08-19T05:27:48;37.10;59.50
9414;DHT22;4746;35.664;139.738;2022-08-19T05:30:16;37.50;59.80
9414;DHT22;4746;35.664;139.738;2022-08-19T05:32:44;37.80;58.60
9414;DHT22;4746;35.664;139.738;2022-08-19T05:35:12;37.90;58.30
9414;DHT22;4746;35.664;139.738;2022-08-19T05:37:39;37.90;57.60
9414;DHT22;4746;35.664;139.738;2022-08-19T05:40:08;37.80;57.10
9414;DHT22;4746;35.664;139.738;2022-08-19T05:42:36;37.90;57.60
9414;DHT22;4746;35.664;139.738;2022-08-19T05:45:04;38.20;57.10
9414;DHT22;4746;35.664;139.738;2022-08-19T05:47:32;38.50;55.60
9414;DHT22;4746;35.664;139.738;2022-08-19T05:50:01;38.80;54.50
9414;DHT22;4746;35.664;139.738;2022-08-19T05:52:28;38.90;53.90
9414;DHT22;4746;35.664;139.738;2022-08-19T05:54:56;39.30;53.50
9414;DHT22;4746;35.664;139.738;2022-08-19T05:57:24;39.50;52.10
9414;DHT22;4746;35.664;139.738;2022-08-19T05:59:54;39.90;51.70
9414;DHT22;4746;35.664;139.738;2022-08-19T06:02:23;40.30;50.80
9414;DHT22;4746;35.664;139.738;2022-08-19T06:04:54;40.30;50.10
9414;DHT22;4746;35.664;139.738;2022-08-19T06:07:22;40.20;48.70
9414;DHT22;4746;35.664;139.738;2022-08-19T06:09:50;39.90;48.10
9414;DHT22;4746;35.664;139.738;2022-08-19T06:12:19;39.50;48.30
9414;DHT22;4746;35.664;139.738;2022-08-19T06:14:47;39.30;48.70
9414;DHT22;4746;35.664;139.738;2022-08-19T06:17:16;39.30;49.40
9414;DHT22;4746;35.664;139.738;2022-08-19T06:19:44;39.90;49.90
9414;DHT22;4746;35.664;139.738;2022-08-19T06:22:11;40.60;49.50
9414;DHT22;4746;35.664;139.738;2022-08-19T06:24:41;41.40;49.40
9414;DHT22;4746;35.664;139.738;2022-08-19T06:27:09;42.10;48.80
9414;DHT22;4746;35.664;139.738;2022-08-19T06:29:36;43.10;48.60
9414;DHT22;4746;35.664;139.738;2022-08-19T06:32:05;43.90;48.20
9414;DHT22;4746;35.664;139.738;2022-08-19T06:34:34;44.80;47.60
9414;DHT22;4746;35.664;139.738;2022-08-19T06:37:02;45.20;46.90
9414;DHT22;4746;35.664;139.738;2022-08-19T06:39:34;45.70;47.80
9414;DHT22;4746;35.664;139.738;2022-08-19T06:42:06;46.20;47.80
9414;DHT22;4746;35.664;139.738;2022-08-19T06:44:39;45.80;48.00
9414;DHT22;4746;35.664;139.738;2022-08-19T06:47:10;45.60;49.30
9414;DHT22;4746;35.664;139.738;2022-08-19T06:49:39;44.70;50.30
9414;DHT22;4746;35.664;139.738;2022-08-19T06:52:08;44.20;51.20
9414;DHT22;4746;35.664;139.738;2022-08-19T06:54:39;43.90;51.70
9414;DHT22;4746;35.664;139.738;2022-08-19T06:57:11;44.30;52.00
9414;DHT22;4746;35.664;139.738;2022-08-19T06:59:41;44.20;51.50
9414;DHT22;4746;35.664;139.738;2022-08-19T07:02:08;43.60;52.70
9414;DHT22;4746;35.664;139.738;2022-08-19T07:04:37;43.70;53.00
9414;DHT22;4746;35.664;139.738;2022-08-19T07:07:10;43.70;53.50
9414;DHT22;4746;35.664;139.738;2022-08-19T07:09:42;43.90;53.90
9414;DHT22;4746;35.664;139.738;2022-08-19T07:12:12;44.20;53.60
9414;DHT22;4746;35.664;139.738;2022-08-19T07:14:43;44.30;53.80
9414;DHT22;4746;35.664;139.738;2022-08-19T07:17:12;44.70;53.60
9414;DHT22;4746;35.664;139.738;2022-08-19T07:19:41;44.80;53.10
9414;DHT22;4746;35.664;139.738;2022-08-19T07:22:09;44.00;52.80
9414;DHT22;4746;35.664;139.738;2022-08-19T07:24:38;44.00;53.80
9414;DHT22;4746;35.664;139.738;2022-08-19T07:27:06;43.70;54.20
9414;DHT22;4746;35.664;139.738;2022-08-19T07:29:36;44.20;54.50
9414;DHT22;4746;35.664;139.738;2022-08-19T07:32:05;44.80;53.80
9414;DHT22;4746;35.664;139.738;2022-08-19T07:34:35;45.30;53.40
9414;DHT22;4746;35.664;139.738;2022-08-19T07:37:07;45.40;52.90
9414;DHT22;4746;35.664;139.738;2022-08-19T07:39:36;45.10;53.00
9414;DHT22;4746;35.664;139.738;2022-08-19T07:42:08;44.50;53.10
9414;DHT22;4746;35.664;139.738;2022-08-19T07:44:37;44.50;53.10
9414;DHT22;4746;35.664;139.738;2022-08-19T07:47:05;44.50;53.00
9414;DHT22;4746;35.664;139.738;2022-08-19T07:49:33;44.10;53.00
9414;DHT22;4746;35.664;139.738;2022-08-19T07:52:05;44.40;53.40
9414;DHT22;4746;35.664;139.738;2022-08-19T07:54:36;44.70;52.80
9414;DHT22;4746;35.664;139.738;2022-08-19T07:57:07;44.80;52.10
9414;DHT22;4746;35.664;139.738;2022-08-19T07:59:35;45.10;52.10
9414;DHT22;4746;35.664;139.738;2022-08-19T08:02:04;44.80;51.60
9414;DHT22;4746;35.664;139.738;2022-08-19T08:04:32;44.80;51.40
9414;DHT22;4746;35.664;139.738;2022-08-19T08:07:17;44.60;50.80
9414;DHT22;4746;35.664;139.738;2022-08-19T08:10:05;43.80;50.70
9414;DHT22;4746;35.664;139.738;2022-08-19T08:12:38;42.60;51.50
9414;DHT22;4746;35.664;139.738;2022-08-19T08:15:12;41.20;52.50
9414;DHT22;4746;35.664;139.738;2022-08-19T08:17:43;39.70;53.60
9414;DHT22;4746;35.664;139.738;2022-08-19T08:20:13;38.30;55.20
9414;DHT22;4746;35.664;139.738;2022-08-19T08:22:47;37.30;56.60
9414;DHT22;4746;35.664;139.738;2022-08-19T08:25:35;36.60;57.80
9414;DHT22;4746;35.664;139.738;2022-08-19T08:28:04;36.40;58.90
9414;DHT22;4746;35.664;139.738;2022-08-19T08:30:35;36.60;59.00
9414;DHT22;4746;35.664;139.738;2022-08-19T08:33:03;36.70;59.10
9414;DHT22;4746;35.664;139.738;2022-08-19T08:35:31;36.40;59.00
9414;DHT22;4746;35.664;139.738;2022-08-19T08:37:59;36.20;59.10
9414;DHT22;4746;35.664;139.738;2022-08-19T08:40:45;36.10;59.80
9414;DHT22;4746;35.664;139.738;2022-08-19T08:43:31;36.00;60.30
9414;DHT22;4746;35.664;139.738;2022-08-19T08:48:49;36.60;60.00
9414;DHT22;4746;35.664;139.738;2022-08-19T08:51:44;36.30;60.00
9414;DHT22;4746;35.664;139.738;2022-08-19T08:54:20;36.20;60.50
9414;DHT22;4746;35.664;139.738;2022-08-19T08:56:52;36.10;60.70
9414;DHT22;4746;35.664;139.738;2022-08-19T08:59:27;36.10;60.70
9414;DHT22;4746;35.664;139.738;2022-08-19T09:02:01;35.30;61.50
9414;DHT22;4746;35.664;139.738;2022-08-19T09:04:29;34.80;62.90
9414;DHT22;4746;35.664;139.738;2022-08-19T09:09:51;34.10;65.90
9414;DHT22;4746;35.664;139.738;2022-08-19T09:15:10;32.90;73.90
9414;DHT22;4746;35.664;139.738;2022-08-19T09:17:39;32.50;90.20
9414;DHT22;4746;35.664;139.738;2022-08-19T09:22:46;32.00;99.90
9414;DHT22;4746;35.664;139.738;2022-08-19T09:25:17;31.70;99.90
9414;DHT22;4746;35.664;139.738;2022-08-19T09:27:51;31.50;99.90
9414;DHT22;4746;35.664;139.738;2022-08-19T09:30:34;31.10;99.90
9414;DHT22;4746;35.664;139.738;2022-08-19T09:33:06;30.90;99.90
9414;DHT22;4746;35.664;139.738;2022-08-19T09:35:34;30.70;99.90
9414;DHT22;4746;35.664;139.738;2022-08-19T09:38:02;30.50;99.90
9414;DHT22;4746;35.664;139.738;2022-08-19T09:40:31;30.40;99.90
9414;DHT22;4746;35.664;139.738;2022-08-19T09:42:59;30.30;99.90
9414;DHT22;4746;35.664;139.738;2022-08-19T09:45:29;30.20;99.90
9414;DHT22;4746;35.664;139.738;2022-08-19T09:47:57;30.10;99.90
9414;DHT22;4746;35.664;139.738;2022-08-19T09:50:25;30.10;99.90
9414;DHT22;4746;35.664;139.738;2022-08-19T09:52:52;30.00;99.90
9414;DHT22;4746;35.664;139.738;2022-08-19T09:55:20;29.80;99.90
9414;DHT22;4746;35.664;139.738;2022-08-19T09:57:47;29.70;99.90
9414;DHT22;4746;35.664;139.738;2022-08-19T10:00:15;29.50;99.90
9414;DHT22;4746;35.664;139.738;2022-08-19T10:02:42;29.50;99.90
9414;DHT22;4746;35.664;139.738;2022-08-19T10:05:10;29.50;99.90
9414;DHT22;4746;35.664;139.738;2022-08-19T10:07:55;29.50;99.90
9414;DHT22;4746;35.664;139.738;2022-08-19T10:10:23;29.50;99.90
9414;DHT22;4746;35.664;139.738;2022-08-19T10:12:51;29.40;99.90
9414;DHT22;4746;35.664;139.738;2022-08-19T10:15:18;29.30;99.90
9414;DHT22;4746;35.664;139.738;2022-08-19T10:17:47;29.20;99.90
9414;DHT22;4746;35.664;139.738;2022-08-19T10:20:16;29.20;99.90
9414;DHT22;4746;35.664;139.738;2022-08-19T10:22:44;29.10;99.90
9414;DHT22;4746;35.664;139.738;2022-08-19T10:25:11;29.20;99.90
9414;DHT22;4746;35.664;139.738;2022-08-19T10:27:42;29.10;99.90
9414;DHT22;4746;35.664;139.738;2022-08-19T10:30:10;29.00;99.90
9414;DHT22;4746;35.664;139.738;2022-08-19T10:32:39;28.90;99.90
9414;DHT22;4746;35.664;139.738;2022-08-19T10:35:06;28.80;99.90
9414;DHT22;4746;35.664;139.738;2022-08-19T10:37:36;28.80;99.90
9414;DHT22;4746;35.664;139.738;2022-08-19T10:40:08;28.80;99.90
9414;DHT22;4746;35.664;139.738;2022-08-19T10:42:37;28.80;99.90
9414;DHT22;4746;35.664;139.738;2022-08-19T10:45:05;28.70;99.90
9414;DHT22;4746;35.664;139.738;2022-08-19T10:47:33;28.70;99.90
9414;DHT22;4746;35.664;139.738;2022-08-19T10:50:01;28.60;99.90
9414;DHT22;4746;35.664;139.738;2022-08-19T10:52:49;28.60;99.90
9414;DHT22;4746;35.664;139.738;2022-08-19T10:55:23;28.60;99.90
9414;DHT22;4746;35.664;139.738;2022-08-19T10:58:17;28.60;99.90
9414;DHT22;4746;35.664;139.738;2022-08-19T11:00:58;28.60;99.90
9414;DHT22;4746;35.664;139.738;2022-08-19T11:03:26;28.50;99.90
9414;DHT22;4746;35.664;139.738;2022-08-19T11:06:08;28.50;99.90
9414;DHT22;4746;35.664;139.738;2022-08-19T11:08:38;28.50;99.90
9414;DHT22;4746;35.664;139.738;2022-08-19T11:11:07;28.50;99.90
9414;DHT22;4746;35.664;139.738;2022-08-19T11:13:37;28.50;99.90
9414;DHT22;4746;35.664;139.738;2022-08-19T11:16:13;28.60;99.90
9414;DHT22;4746;35.664;139.738;2022-08-19T11:18:46;28.60;99.90
9414;DHT22;4746;35.664;139.738;2022-08-19T11:23:49;28.60;99.90
9414;DHT22;4746;35.664;139.738;2022-08-19T11:26:19;28.60;99.90
9414;DHT22;4746;35.664;139.738;2022-08-19T11:28:48;28.50;99.90
9414;DHT22;4746;35.664;139.738;2022-08-19T11:31:24;28.50;99.90
9414;DHT22;4746;35.664;139.738;2022-08-19T11:33:55;28.50;99.90
9414;DHT22;4746;35.664;139.738;2022-08-19T11:36:27;28.50;99.90
9414;DHT22;4746;35.664;139.738;2022-08-19T11:38:55;28.40;99.90
9414;DHT22;4746;35.664;139.738;2022-08-19T11:41:24;28.40;99.90
9414;DHT22;4746;35.664;139.738;2022-08-19T11:43:54;28.30;99.90
9414;DHT22;4746;35.664;139.738;2022-08-19T11:46:24;28.40;99.90
9414;DHT22;4746;35.664;139.738;2022-08-19T11:48:56;28.40;99.90
9414;DHT22;4746;35.664;139.738;2022-08-19T11:51:27;28.40;99.90
9414;DHT22;4746;35.664;139.738;2022-08-19T11:53:56;28.30;99.90
9414;DHT22;4746;35.664;139.738;2022-08-19T11:56:26;28.20;99.90
9414;DHT22;4746;35.664;139.738;2022-08-19T11:58:55;28.20;99.90
9414;DHT22;4746;35.664;139.738;2022-08-19T12:01:26;28.20;99.90
9414;DHT22;4746;35.664;139.738;2022-08-19T12:03:55;28.20;99.90
9414;DHT22;4746;35.664;139.738;2022-08-19T12:06:30;28.10;99.90
9414;DHT22;4746;35.664;139.738;2022-08-19T12:09:03;28.00;99.90
9414;DHT22;4746;35.664;139.738;2022-08-19T12:11:33;28.00;99.90
9414;DHT22;4746;35.664;139.738;2022-08-19T12:14:02;28.00;99.90
9414;DHT22;4746;35.664;139.738;2022-08-19T12:16:31;28.00;99.90
9414;DHT22;4746;35.664;139.738;2022-08-19T12:19:00;28.00;99.90
9414;DHT22;4746;35.664;139.738;2022-08-19T12:21:32;28.10;99.90
9414;DHT22;4746;35.664;139.738;2022-08-19T12:24:03;28.20;99.90
9414;DHT22;4746;35.664;139.738;2022-08-19T12:26:32;28.20;99.90
9414;DHT22;4746;35.664;139.738;2022-08-19T12:29:00;28.20;99.90
9414;DHT22;4746;35.664;139.738;2022-08-19T12:31:28;28.20;99.90
9414;DHT22;4746;35.664;139.738;2022-08-19T12:33:56;28.20;99.90
9414;DHT22;4746;35.664;139.738;2022-08-19T12:36:25;28.20;99.90
9414;DHT22;4746;35.664;139.738;2022-08-19T12:38:52;28.20;99.90
9414;DHT22;4746;35.664;139.738;2022-08-19T12:41:21;28.20;99.90
9414;DHT22;4746;35.664;139.738;2022-08-19T12:43:49;28.20;99.90
9414;DHT22;4746;35.664;139.738;2022-08-19T12:46:17;28.20;99.90
9414;DHT22;4746;35.664;139.738;2022-08-19T12:48:46;28.20;99.90
9414;DHT22;4746;35.664;139.738;2022-08-19T12:51:16;28.20;99.90
9414;DHT22;4746;35.664;139.738;2022-08-19T12:53:47;28.20;99.90
9414;DHT22;4746;35.664;139.738;2022-08-19T12:56:16;28.20;99.90
9414;DHT22;4746;35.664;139.738;2022-08-19T12:58:45;28.20;99.90
9414;DHT22;4746;35.664;139.738;2022-08-19T13:01:14;28.20;99.90
9414;DHT22;4746;35.664;139.738;2022-08-19T13:03:45;28.20;99.90
9414;DHT22;4746;35.664;139.738;2022-08-19T13:06:13;28.20;99.90
9414;DHT22;4746;35.664;139.738;2022-08-19T13:08:41;28.20;99.90
9414;DHT22;4746;35.664;139.738;2022-08-19T13:11:11;28.20;99.90
9414;DHT22;4746;35.664;139.738;2022-08-19T13:13:46;28.20;99.90
9414;DHT22;4746;35.664;139.738;2022-08-19T13:16:17;28.20;99.90
9414;DHT22;4746;35.664;139.738;2022-08-19T13:18:47;28.10;99.90
9414;DHT22;4746;35.664;139.738;2022-08-19T13:21:16;28.10;99.90
9414;DHT22;4746;35.664;139.738;2022-08-19T13:23:46;28.20;99.90
9414;DHT22;4746;35.664;139.738;2022-08-19T13:26:15;28.20;99.90
9414;DHT22;4746;35.664;139.738;2022-08-19T13:28:43;28.20;99.90
9414;DHT22;4746;35.664;139.738;2022-08-19T13:31:32;28.10;99.90
9414;DHT22;4746;35.664;139.738;2022-08-19T13:34:27;28.20;99.90
9414;DHT22;4746;35.664;139.738;2022-08-19T13:36:58;28.20;99.90
9414;DHT22;4746;35.664;139.738;2022-08-19T13:39:30;28.10;99.90
9414;DHT22;4746;35.664;139.738;2022-08-19T13:42:05;28.10;99.90
9414;DHT22;4746;35.664;139.738;2022-08-19T13:44:34;28.10;99.90
9414;DHT22;4746;35.664;139.738;2022-08-19T13:47:04;28.10;99.90
9414;DHT22;4746;35.664;139.738;2022-08-19T13:49:34;28.10;99.90
9414;DHT22;4746;35.664;139.738;2022-08-19T13:52:04;28.10;99.90
9414;DHT22;4746;35.664;139.738;2022-08-19T13:54:32;28.10;99.90
9414;DHT22;4746;35.664;139.738;2022-08-19T13:56:59;28.10;99.90
9414;DHT22;4746;35.664;139.738;2022-08-19T13:59:27;28.10;99.90
9414;DHT22;4746;35.664;139.738;2022-08-19T14:01:59;28.10;99.90
9414;DHT22;4746;35.664;139.738;2022-08-19T14:04:27;28.10;99.90
9414;DHT22;4746;35.664;139.738;2022-08-19T14:06:54;28.10;99.90
9414;DHT22;4746;35.664;139.738;2022-08-19T14:09:22;28.20;99.90
9414;DHT22;4746;35.664;139.738;2022-08-19T14:11:49;28.20;99.90
9414;DHT22;4746;35.664;139.738;2022-08-19T14:14:17;28.20;99.90
9414;DHT22;4746;35.664;139.738;2022-08-19T14:16:44;28.20;99.90
9414;DHT22;4746;35.664;139.738;2022-08-19T14:19:12;28.20;99.90
9414;DHT22;4746;35.664;139.738;2022-08-19T14:21:40;28.10;99.90
9414;DHT22;4746;35.664;139.738;2022-08-19T14:24:08;28.10;99.90
9414;DHT22;4746;35.664;139.738;2022-08-19T14:26:36;28.10;99.90
9414;DHT22;4746;35.664;139.738;2022-08-19T14:29:04;28.10;99.90
9414;DHT22;4746;35.664;139.738;2022-08-19T14:31:32;28.10;99.90
9414;DHT22;4746;35.664;139.738;2022-08-19T14:34:00;28.10;99.90
9414;DHT22;4746;35.664;139.738;2022-08-19T14:36:28;28.10;99.90
9414;DHT22;4746;35.664;139.738;2022-08-19T14:38:56;28.10;99.90
9414;DHT22;4746;35.664;139.738;2022-08-19T14:41:24;28.10;99.90
9414;DHT22;4746;35.664;139.738;2022-08-19T14:43:53;28.10;99.90
9414;DHT22;4746;35.664;139.738;2022-08-19T14:46:23;28.10;99.90
9414;DHT22;4746;35.664;139.738;2022-08-19T14:48:53;28.10;99.90
9414;DHT22;4746;35.664;139.738;2022-08-19T14:51:23;28.10;99.90
9414;DHT22;4746;35.664;139.738;2022-08-19T14:53:53;28.10;99.90
9414;DHT22;4746;35.664;139.738;2022-08-19T14:56:23;28.10;99.90
9414;DHT22;4746;35.664;139.738;2022-08-19T14:58:54;28.10;99.90
9414;DHT22;4746;35.664;139.738;2022-08-19T15:01:26;28.10;99.90
9414;DHT22;4746;35.664;139.738;2022-08-19T15:03:54;28.10;99.90
9414;DHT22;4746;35.664;139.738;2022-08-19T15:06:23;28.00;99.90
9414;DHT22;4746;35.664;139.738;2022-08-19T15:08:52;28.10;99.90
9414;DHT22;4746;35.664;139.738;2022-08-19T15:11:22;28.10;99.90
9414;DHT22;4746;35.664;139.738;2022-08-19T15:13:55;28.00;99.90
9414;DHT22;4746;35.664;139.738;2022-08-19T15:16:24;28.00;99.90
9414;DHT22;4746;35.664;139.738;2022-08-19T15:18:57;28.10;99.90
9414;DHT22;4746;35.664;139.738;2022-08-19T15:21:27;28.10;99.90
9414;DHT22;4746;35.664;139.738;2022-08-19T15:23:57;28.10;99.90
9414;DHT22;4746;35.664;139.738;2022-08-19T15:26:27;28.10;99.90
9414;DHT22;4746;35.664;139.738;2022-08-19T15:28:59;28.10;99.90
9414;DHT22;4746;35.664;139.738;2022-08-19T15:31:28;28.10;99.90
9414;DHT22;4746;35.664;139.738;2022-08-19T15:34:02;28.10;99.90
9414;DHT22;4746;35.664;139.738;2022-08-19T15:36:32;28.10;99.90
9414;DHT22;4746;35.664;139.738;2022-08-19T15:39:00;28.10;99.90
9414;DHT22;4746;35.664;139.738;2022-08-19T15:41:29;28.10;99.90
9414;DHT22;4746;35.664;139.738;2022-08-19T15:44:00;28.10;99.90
9414;DHT22;4746;35.664;139.738;2022-08-19T15:46:32;28.00;99.90
9414;DHT22;4746;35.664;139.738;2022-08-19T15:49:02;28.00;99.90
9414;DHT22;4746;35.664;139.738;2022-08-19T15:51:33;28.00;99.90
9414;DHT22;4746;35.664;139.738;2022-08-19T15:54:04;28.00;99.90
9414;DHT22;4746;35.664;139.738;2022-08-19T15:56:34;28.00;99.90
9414;DHT22;4746;35.664;139.738;2022-08-19T15:59:20;28.00;99.90
9414;DHT22;4746;35.664;139.738;2022-08-19T16:02:06;28.00;99.90
9414;DHT22;4746;35.664;139.738;2022-08-19T16:04:53;28.00;99.90
9414;DHT22;4746;35.664;139.738;2022-08-19T16:07:38;28.00;99.90